createdAt,value
2023-01-22T00:04:13.009Z,131.23404
2023-01-22T00:09:14.722Z,131.23404
2023-01-22T00:14:16.688Z,128.98498
2023-01-22T00:19:18.155Z,133.53846
2023-01-22T00:24:19.724Z,135.90031
2023-01-22T00:29:21.209Z,135.30435
2023-01-22T00:34:22.765Z,128.43114
2023-01-22T00:39:24.689Z,127.33333
2023-01-22T00:44:26.501Z,127.33333
2023-01-22T00:49:28.074Z,124.64516
2023-01-22T00:54:29.671Z,122.55072
2023-01-22T00:59:31.179Z,128.43114
2023-01-22T01:04:32.735Z,130.66667
2023-01-22T01:09:34.453Z,131.80488
2023-01-22T01:14:36.119Z,134.71207
2023-01-22T01:19:37.613Z,134.71207
2023-01-22T01:24:39.088Z,130.66667
2023-01-22T01:29:41.150Z,129.54217
2023-01-22T01:34:43.034Z,128.43114
2023-01-22T01:39:44.819Z,127.33333
2023-01-22T01:44:47.005Z,134.71207
2023-01-22T01:49:48.981Z,133.53846
2023-01-22T01:54:51.026Z,134.71207
2023-01-22T01:59:52.764Z,134.71207
2023-01-22T02:04:54.271Z,137.10345
2023-01-22T02:09:55.749Z,137.71069
2023-01-22T02:14:57.592Z,135.30435
2023-01-22T02:19:59.093Z,135.90031
2023-01-22T02:25:00.572Z,134.12346
2023-01-22T02:30:02.437Z,134.12346
2023-01-22T02:35:03.913Z,133.53846
2023-01-22T02:40:05.521Z,132.95706
2023-01-22T02:45:07.670Z,132.3792
2023-01-22T02:50:09.120Z,132.3792
2023-01-22T02:55:10.766Z,132.3792
2023-01-22T03:00:12.294Z,134.12346
2023-01-22T03:05:14.124Z,132.95706
2023-01-22T03:10:15.778Z,127.8806
2023-01-22T03:15:17.508Z,133.53846
2023-01-22T03:20:19.547Z,130.66667
2023-01-22T03:25:21.112Z,129.54217
2023-01-22T03:30:23.116Z,129.54217
2023-01-22T03:35:24.673Z,130.66667
2023-01-22T03:40:26.166Z,131.23404
2023-01-22T03:45:27.838Z,130.10272
2023-01-22T03:50:29.356Z,132.3792
2023-01-22T03:55:30.846Z,132.95706
2023-01-22T04:00:32.976Z,134.12346
2023-01-22T04:05:34.473Z,134.12346
2023-01-22T04:10:36.038Z,137.10345
2023-01-22T04:15:38.088Z,138.32177
2023-01-22T04:20:39.875Z,135.90031
2023-01-22T04:25:41.831Z,135.30435
2023-01-22T04:30:44.070Z,135.90031
2023-01-22T04:35:45.986Z,137.10345
2023-01-22T04:40:47.887Z,142.07074
2023-01-22T04:45:49.642Z,142.07074
2023-01-22T04:50:51.501Z,144
2023-01-22T04:55:53.318Z,143.35275
2023-01-22T05:00:54.916Z,138.32177
2023-01-22T05:05:56.950Z,138.93671
2023-01-22T05:10:58.805Z,147.30033
2023-01-22T05:16:00.547Z,145.30719
2023-01-22T05:21:02.265Z,141.4359
2023-01-22T05:26:03.780Z,143.35275
2023-01-22T05:31:05.545Z,141.4359
2023-01-22T05:36:07.027Z,148.65116
2023-01-22T05:41:08.832Z,152.81356
2023-01-22T05:46:11.529Z,149.33333
2023-01-22T05:51:13.363Z,154.23891
2023-01-22T05:56:15.261Z,160.90141
2023-01-22T06:01:17.227Z,161.66784
2023-01-22T06:06:18.679Z,157.14879
2023-01-22T06:11:20.355Z,153.52381
2023-01-22T06:16:22.106Z,159.38462
2023-01-22T06:21:23.620Z,179.1145
2023-01-22T06:26:25.317Z,166.38267
2023-01-22T06:31:27.138Z,166.38267
2023-01-22T06:36:28.771Z,187.47826
2023-01-22T06:41:30.415Z,188.44444
2023-01-22T06:46:32.509Z,191.38956
2023-01-22T06:51:34.454Z,190.4
2023-01-22T06:56:36.113Z,193.39271
2023-01-22T07:01:37.929Z,214.17544
2023-01-22T07:06:39.450Z,203.91561
2023-01-22T07:11:40.954Z,199.60166
2023-01-22T07:16:42.738Z,212.99563
2023-01-22T07:21:44.320Z,215.36564
2023-01-22T07:26:46.056Z,245.96078
2023-01-22T07:31:49.783Z,273.41176
2023-01-22T07:36:51.997Z,266.51309
2023-01-22T07:41:53.909Z,288.13408
2023-01-22T07:46:56.079Z,268.21053
2023-01-22T07:51:57.812Z,269.92593
2023-01-22T08:02:05.350Z,294
2023-01-22T08:07:06.842Z,363.04762
2023-01-22T08:12:08.699Z,326.6087
2023-01-22T08:17:10.711Z,349.26316
2023-01-22T08:22:12.625Z,387.16547
2023-01-22T08:27:14.541Z,357.42282
2023-01-22T08:32:16.652Z,374.76923
2023-01-22T08:37:18.595Z,457.33333
2023-01-22T08:42:20.121Z,519.70093
2023-01-22T08:47:21.899Z,628.44444
2023-01-22T08:52:23.675Z,504
2023-01-22T08:57:25.233Z,579.05155
2023-01-22T09:02:26.898Z,525.13208
2023-01-22T09:07:28.612Z,514.37037
2023-01-22T09:12:30.171Z,514.37037
2023-01-22T09:17:31.833Z,628.44444
2023-01-22T09:22:33.455Z,836.75362
2023-01-22T09:27:35.063Z,704.49383
2023-01-22T09:32:36.909Z,723.74684
2023-01-22T09:37:38.620Z,1446.43902
2023-01-22T09:42:40.237Z,1024.70175
2023-01-22T09:47:42.247Z,1064
2023-01-22T09:52:44.064Z,1106.26415
2023-01-22T09:57:45.541Z,1376.55814
2023-01-22T10:02:47.249Z,1376.55814
2023-01-22T10:07:48.883Z,1254.6383
2023-01-22T10:12:50.385Z,1312.88889
2023-01-22T10:17:52.483Z,1376.55814
2023-01-22T10:22:54.600Z,1312.88889
2023-01-22T10:27:56.371Z,1484
2023-01-22T10:32:58.145Z,1484
2023-01-22T10:37:59.654Z,2225.48148
2023-01-22T10:43:01.132Z,1106.26415
2023-01-22T10:48:02.968Z,1704
2023-01-22T10:53:04.540Z,2225.48148
2023-01-22T10:58:06.037Z,4682.46154
2023-01-22T11:03:07.923Z,6104
2023-01-22T11:08:09.344Z,3366.22222
2023-01-22T11:13:10.756Z,1655.11111
2023-01-22T11:18:12.530Z,2225.48148
2023-01-22T11:23:13.997Z,2408
2023-01-22T11:28:15.589Z,1931.09677
2023-01-22T11:33:17.521Z,4344
2023-01-22T11:38:19.277Z,4682.46154
2023-01-22T11:43:20.741Z,8744
2023-01-22T11:48:22.526Z,8744
2023-01-22T11:53:23.947Z,5077.33333
2023-01-22T11:58:25.443Z,3024
2023-01-22T12:03:27.020Z,2744
2023-01-22T12:08:28.479Z,1997.33333
2023-01-22T12:13:30.044Z,1410.66667
2023-01-22T12:18:31.710Z,891.69231
2023-01-22T12:23:33.231Z,704.49383
2023-01-22T12:28:34.869Z,636.13483
2023-01-22T12:33:36.329Z,628.44444
2023-01-22T12:38:37.936Z,714
2023-01-22T12:43:39.401Z,453.09091
2023-01-22T12:48:41.400Z,368.82759
2023-01-22T12:53:42.860Z,357.42282
2023-01-22T12:58:44.795Z,390.37681
2023-01-22T13:03:46.388Z,475.03448
2023-01-22T13:08:48.308Z,536.30769
2023-01-22T13:13:50.283Z,723.74684
2023-01-22T13:18:52.370Z,714
2023-01-22T13:23:54.206Z,863.40299
2023-01-22T13:28:56.163Z,1044
2023-01-22T13:33:58.232Z,1044
2023-01-22T13:39:00.108Z,1755.76471
2023-01-22T13:44:02.073Z,1565.05263
2023-01-22T13:49:04.162Z,2225.48148
2023-01-22T13:54:06.015Z,2225.48148
2023-01-22T13:59:07.786Z,0
2023-01-22T14:04:09.683Z,0
2023-01-22T14:09:11.501Z,3794
2023-01-22T14:14:13.293Z,0
2023-01-22T14:19:15.294Z,0
2023-01-22T14:24:17.138Z,0
2023-01-22T14:29:18.917Z,0
2023-01-22T14:34:20.955Z,0
2023-01-22T14:39:22.396Z,0
2023-01-22T14:44:23.991Z,0
2023-01-22T14:49:25.756Z,0
2023-01-22T14:54:27.520Z,0
2023-01-22T14:59:29.055Z,0
2023-01-22T15:04:30.612Z,0
2023-01-22T15:09:32.194Z,0
2023-01-22T15:14:33.741Z,0
2023-01-22T15:19:41.231Z,0
2023-01-22T15:24:43.333Z,0
2023-01-22T15:29:45.098Z,0
2023-01-22T15:34:46.947Z,0
2023-01-22T15:39:48.708Z,0
2023-01-22T15:44:50.489Z,0
2023-01-22T15:49:52.478Z,0
2023-01-22T15:54:54.548Z,0
2023-01-22T15:59:56.471Z,0
2023-01-22T16:04:58.585Z,0
2023-01-22T16:10:00.437Z,0
2023-01-22T16:15:02.229Z,0
2023-01-22T16:20:04.197Z,0
2023-01-22T16:25:06.175Z,1227.33333
2023-01-22T16:30:08.187Z,891.69231
2023-01-22T16:35:10.198Z,824
2023-01-22T16:40:11.990Z,811.60563
2023-01-22T16:45:13.749Z,592.42105
2023-01-22T16:50:15.454Z,453.09091
2023-01-22T16:55:16.951Z,461.64706
2023-01-22T17:00:19.269Z,457.33333
2023-01-22T17:05:21.535Z,403.70149
2023-01-22T17:10:23.032Z,425.25
2023-01-22T17:15:24.531Z,403.70149
2023-01-22T17:20:26.302Z,417.84615
2023-01-22T17:25:27.855Z,360.21622
2023-01-22T17:30:29.617Z,304.23392
2023-01-22T17:35:31.601Z,280.61202
2023-01-22T17:40:33.392Z,269.92593
2023-01-22T17:45:35.042Z,202.82353
2023-01-22T17:50:37.146Z,197.49794
2023-01-22T17:55:39.089Z,196.45902
2023-01-22T18:00:40.731Z,234.56604
2023-01-22T18:05:42.709Z,194.4065
2023-01-22T18:10:44.612Z,237.33333
2023-01-22T18:15:46.639Z,284.33149
2023-01-22T18:20:48.853Z,294
2023-01-22T18:25:50.635Z,298.02299
2023-01-22T18:30:52.584Z,304.23392
2023-01-22T18:35:54.694Z,300.06936
2023-01-22T18:40:56.516Z,312.86228
2023-01-22T18:45:58.163Z,304.23392
2023-01-22T18:51:00.197Z,326.6087
2023-01-22T18:56:02.059Z,319.60976
2023-01-22T19:01:03.868Z,317.33333
2023-01-22T19:06:05.805Z,310.66667
2023-01-22T19:11:07.850Z,317.33333
2023-01-22T19:16:09.794Z,302.13953
2023-01-22T19:21:11.815Z,300.06936
2023-01-22T19:26:13.615Z,298.02299
2023-01-22T19:31:15.383Z,282.46154
2023-01-22T19:36:17.589Z,280.61202
2023-01-22T19:41:19.085Z,290.06742
2023-01-22T19:46:20.933Z,259.89744
2023-01-22T19:51:23.004Z,266.51309
2023-01-22T19:56:24.548Z,258.28571
2023-01-22T20:01:26.235Z,231.85047
2023-01-22T20:06:28.185Z,226.56881
2023-01-22T20:11:29.867Z,210.66667
2023-01-22T20:16:31.572Z,197.49794
2023-01-22T20:21:33.275Z,192.3871
2023-01-22T20:26:34.844Z,180.01533
2023-01-22T20:31:36.379Z,176.45283
2023-01-22T20:36:37.956Z,173.85075
2023-01-22T20:41:39.404Z,168.81752
2023-01-22T20:46:41.086Z,168
2023-01-22T20:51:42.854Z,172.14815
2023-01-22T20:56:44.461Z,172.14815
2023-01-22T21:01:46.147Z,173.85075
2023-01-22T21:06:48.388Z,171.30627
2023-01-22T21:11:49.894Z,167.18841
2023-01-22T21:16:51.692Z,164
2023-01-22T21:27:04.023Z,153.52381
2023-01-22T21:32:05.728Z,159.38462
2023-01-22T21:37:07.274Z,160.14035
2023-01-22T21:42:09.080Z,164.78853
2023-01-22T21:47:11.194Z,173.85075
2023-01-22T21:52:12.737Z,178.22053
2023-01-22T21:57:14.510Z,180.92308
2023-01-22T22:02:16.610Z,178.22053
2023-01-22T22:07:18.597Z,172.14815
2023-01-22T22:12:20.469Z,178.22053
2023-01-22T22:17:22.343Z,185.56863
2023-01-22T22:22:23.810Z,194.4065
2023-01-22T22:27:27.671Z,196.45902
2023-01-22T22:32:29.304Z,189.41833
2023-01-22T22:37:30.921Z,186.51969
2023-01-22T22:42:32.365Z,185.56863
2023-01-22T22:47:34.073Z,181.83784
2023-01-22T22:52:35.590Z,177.33333
2023-01-22T22:57:37.685Z,170.47059
2023-01-22T23:02:39.430Z,166.38267
2023-01-22T23:07:41.111Z,159.38462
2023-01-22T23:12:43.155Z,155.68385
2023-01-22T23:17:44.929Z,153.52381
2023-01-22T23:22:46.693Z,155.68385
2023-01-22T23:27:49.594Z,151.40741
2023-01-22T23:32:51.453Z,150.71141
2023-01-22T23:37:53.259Z,146.63158
2023-01-22T23:42:54.942Z,145.30719
2023-01-22T23:47:56.831Z,146.63158
2023-01-22T23:52:58.594Z,146.63158
2023-01-22T23:58:01.070Z,148.65116
